sensor_id;sensor_type;location;lat;lon;timestamp;P1;durP1;ratioP1;P2;durP2;ratioP2
77612;SDS011;66777;52.282;5.960;2023-02-15T00:00:20;23.67;;;10.98;;
77612;SDS011;66777;52.282;5.960;2023-02-15T00:02:46;19.67;;;8.13;;
77612;SDS011;66777;52.282;5.960;2023-02-15T00:05:12;20.20;;;8.27;;
77612;SDS011;66777;52.282;5.960;2023-02-15T00:07:38;19.08;;;7.43;;
77612;SDS011;66777;52.282;5.960;2023-02-15T00:10:03;19.13;;;6.88;;
77612;SDS011;66777;52.282;5.960;2023-02-15T00:12:32;19.67;;;7.35;;
77612;SDS011;66777;52.282;5.960;2023-02-15T00:14:57;20.60;;;7.28;;
77612;SDS011;66777;52.282;5.960;2023-02-15T00:17:23;22.33;;;8.10;;
77612;SDS011;66777;52.282;5.960;2023-02-15T00:19:50;19.50;;;7.72;;
77612;SDS011;66777;52.282;5.960;2023-02-15T00:22:15;16.92;;;7.78;;
77612;SDS011;66777;52.282;5.960;2023-02-15T00:24:41;20.15;;;7.97;;
77612;SDS011;66777;52.282;5.960;2023-02-15T00:27:06;21.42;;;8.55;;
77612;SDS011;66777;52.282;5.960;2023-02-15T00:29:34;22.17;;;8.48;;
77612;SDS011;66777;52.282;5.960;2023-02-15T00:31:59;20.58;;;9.63;;
77612;SDS011;66777;52.282;5.960;2023-02-15T00:34:25;23.05;;;8.23;;
77612;SDS011;66777;52.282;5.960;2023-02-15T00:36:52;22.85;;;8.27;;
77612;SDS011;66777;52.282;5.960;2023-02-15T00:39:18;22.42;;;8.85;;
77612;SDS011;66777;52.282;5.960;2023-02-15T00:41:44;29.92;;;10.75;;
77612;SDS011;66777;52.282;5.960;2023-02-15T00:44:11;24.85;;;9.38;;
77612;SDS011;66777;52.282;5.960;2023-02-15T00:46:37;26.13;;;10.15;;
77612;SDS011;66777;52.282;5.960;2023-02-15T00:49:03;26.30;;;9.95;;
77612;SDS011;66777;52.282;5.960;2023-02-15T00:51:30;27.67;;;10.63;;
77612;SDS011;66777;52.282;5.960;2023-02-15T00:53:57;26.33;;;10.43;;
77612;SDS011;66777;52.282;5.960;2023-02-15T00:56:23;26.45;;;9.93;;
77612;SDS011;66777;52.282;5.960;2023-02-15T00:58:48;31.90;;;11.05;;
77612;SDS011;66777;52.282;5.960;2023-02-15T01:01:17;30.92;;;10.88;;
77612;SDS011;66777;52.282;5.960;2023-02-15T01:03:44;29.38;;;11.10;;
77612;SDS011;66777;52.282;5.960;2023-02-15T01:06:11;27.88;;;11.07;;
77612;SDS011;66777;52.282;5.960;2023-02-15T01:08:38;20.35;;;9.90;;
77612;SDS011;66777;52.282;5.960;2023-02-15T01:11:22;23.13;;;12.13;;
77612;SDS011;66777;52.282;5.960;2023-02-15T01:13:49;29.63;;;9.65;;
77612;SDS011;66777;52.282;5.960;2023-02-15T01:16:19;26.50;;;9.93;;
77612;SDS011;66777;52.282;5.960;2023-02-15T01:18:45;22.77;;;8.70;;
77612;SDS011;66777;52.282;5.960;2023-02-15T01:21:15;34.10;;;11.70;;
77612;SDS011;66777;52.282;5.960;2023-02-15T01:23:43;29.30;;;9.52;;
77612;SDS011;66777;52.282;5.960;2023-02-15T01:26:09;26.25;;;10.43;;
77612;SDS011;66777;52.282;5.960;2023-02-15T01:28:35;25.67;;;9.48;;
77612;SDS011;66777;52.282;5.960;2023-02-15T01:31:08;23.25;;;9.88;;
77612;SDS011;66777;52.282;5.960;2023-02-15T01:33:46;23.00;;;10.02;;
77612;SDS011;66777;52.282;5.960;2023-02-15T01:36:12;23.00;;;9.45;;
77612;SDS011;66777;52.282;5.960;2023-02-15T01:38:39;23.73;;;8.80;;
77612;SDS011;66777;52.282;5.960;2023-02-15T01:41:05;23.00;;;8.15;;
77612;SDS011;66777;52.282;5.960;2023-02-15T01:43:49;24.48;;;10.25;;
77612;SDS011;66777;52.282;5.960;2023-02-15T01:46:18;25.23;;;10.43;;
77612;SDS011;66777;52.282;5.960;2023-02-15T01:48:47;24.15;;;9.70;;
77612;SDS011;66777;52.282;5.960;2023-02-15T01:51:17;29.27;;;10.70;;
77612;SDS011;66777;52.282;5.960;2023-02-15T01:53:51;28.20;;;10.07;;
77612;SDS011;66777;52.282;5.960;2023-02-15T01:56:22;27.95;;;11.02;;
77612;SDS011;66777;52.282;5.960;2023-02-15T01:58:51;26.77;;;11.52;;
77612;SDS011;66777;52.282;5.960;2023-02-15T02:01:20;26.75;;;11.45;;
77612;SDS011;66777;52.282;5.960;2023-02-15T02:03:57;27.67;;;10.35;;
77612;SDS011;66777;52.282;5.960;2023-02-15T02:06:30;31.95;;;12.48;;
77612;SDS011;66777;52.282;5.960;2023-02-15T02:08:58;35.50;;;13.65;;
77612;SDS011;66777;52.282;5.960;2023-02-15T02:11:23;28.83;;;10.80;;
77612;SDS011;66777;52.282;5.960;2023-02-15T02:13:50;28.25;;;11.73;;
77612;SDS011;66777;52.282;5.960;2023-02-15T02:33:41;28.90;;;12.10;;
77612;SDS011;66777;52.282;5.960;2023-02-15T02:36:15;28.95;;;11.45;;
77612;SDS011;66777;52.282;5.960;2023-02-15T02:38:55;34.70;;;11.95;;
77612;SDS011;66777;52.282;5.960;2023-02-15T02:41:44;26.77;;;10.35;;
77612;SDS011;66777;52.282;5.960;2023-02-15T02:44:42;33.78;;;11.57;;
77612;SDS011;66777;52.282;5.960;2023-02-15T02:47:13;32.85;;;11.93;;
77612;SDS011;66777;52.282;5.960;2023-02-15T02:49:46;26.63;;;11.05;;
77612;SDS011;66777;52.282;5.960;2023-02-15T02:55:27;26.50;;;10.30;;
77612;SDS011;66777;52.282;5.960;2023-02-15T02:58:03;33.03;;;12.88;;
77612;SDS011;66777;52.282;5.960;2023-02-15T03:00:40;25.77;;;10.70;;
77612;SDS011;66777;52.282;5.960;2023-02-15T03:06:02;24.88;;;10.52;;
77612;SDS011;66777;52.282;5.960;2023-02-15T03:08:40;27.38;;;10.82;;
77612;SDS011;66777;52.282;5.960;2023-02-15T03:11:09;26.63;;;11.63;;
77612;SDS011;66777;52.282;5.960;2023-02-15T03:13:36;28.27;;;11.10;;
77612;SDS011;66777;52.282;5.960;2023-02-15T03:16:03;27.50;;;11.00;;
77612;SDS011;66777;52.282;5.960;2023-02-15T03:18:51;29.33;;;10.02;;
77612;SDS011;66777;52.282;5.960;2023-02-15T03:21:33;30.45;;;12.98;;
77612;SDS011;66777;52.282;5.960;2023-02-15T03:24:14;35.28;;;12.82;;
77612;SDS011;66777;52.282;5.960;2023-02-15T03:26:45;24.58;;;10.38;;
77612;SDS011;66777;52.282;5.960;2023-02-15T03:29:12;30.88;;;11.85;;
77612;SDS011;66777;52.282;5.960;2023-02-15T03:31:41;28.55;;;10.68;;
77612;SDS011;66777;52.282;5.960;2023-02-15T03:34:11;23.95;;;10.85;;
77612;SDS011;66777;52.282;5.960;2023-02-15T03:36:41;23.20;;;9.30;;
77612;SDS011;66777;52.282;5.960;2023-02-15T03:42:02;26.85;;;10.60;;
77612;SDS011;66777;52.282;5.960;2023-02-15T03:47:17;28.58;;;10.93;;
77612;SDS011;66777;52.282;5.960;2023-02-15T03:49:56;34.45;;;10.73;;
77612;SDS011;66777;52.282;5.960;2023-02-15T03:52:27;29.80;;;10.95;;
77612;SDS011;66777;52.282;5.960;2023-02-15T03:54:54;29.50;;;12.10;;
77612;SDS011;66777;52.282;5.960;2023-02-15T03:57:24;29.75;;;11.65;;
77612;SDS011;66777;52.282;5.960;2023-02-15T04:03:09;26.40;;;10.98;;
77612;SDS011;66777;52.282;5.960;2023-02-15T04:05:38;29.60;;;11.85;;
77612;SDS011;66777;52.282;5.960;2023-02-15T04:08:04;26.27;;;11.90;;
77612;SDS011;66777;52.282;5.960;2023-02-15T04:10:30;26.55;;;10.10;;
77612;SDS011;66777;52.282;5.960;2023-02-15T04:13:14;31.88;;;11.60;;
77612;SDS011;66777;52.282;5.960;2023-02-15T04:15:39;33.40;;;11.93;;
77612;SDS011;66777;52.282;5.960;2023-02-15T04:18:24;25.35;;;9.23;;
77612;SDS011;66777;52.282;5.960;2023-02-15T04:21:08;26.15;;;9.63;;
77612;SDS011;66777;52.282;5.960;2023-02-15T04:23:52;31.50;;;11.23;;
77612;SDS011;66777;52.282;5.960;2023-02-15T04:26:36;29.80;;;10.88;;
77612;SDS011;66777;52.282;5.960;2023-02-15T04:29:02;27.85;;;11.70;;
77612;SDS011;66777;52.282;5.960;2023-02-15T04:31:27;35.53;;;11.90;;
77612;SDS011;66777;52.282;5.960;2023-02-15T04:33:53;26.38;;;10.80;;
77612;SDS011;66777;52.282;5.960;2023-02-15T04:36:18;27.85;;;11.25;;
77612;SDS011;66777;52.282;5.960;2023-02-15T04:38:44;27.02;;;10.50;;
77612;SDS011;66777;52.282;5.960;2023-02-15T04:41:10;36.03;;;11.70;;
77612;SDS011;66777;52.282;5.960;2023-02-15T04:43:37;25.65;;;11.02;;
77612;SDS011;66777;52.282;5.960;2023-02-15T04:46:02;30.20;;;11.57;;
77612;SDS011;66777;52.282;5.960;2023-02-15T04:48:28;31.40;;;11.13;;
77612;SDS011;66777;52.282;5.960;2023-02-15T04:50:54;32.17;;;11.13;;
77612;SDS011;66777;52.282;5.960;2023-02-15T04:53:20;26.60;;;11.07;;
77612;SDS011;66777;52.282;5.960;2023-02-15T04:55:45;28.48;;;10.60;;
77612;SDS011;66777;52.282;5.960;2023-02-15T04:58:11;22.58;;;11.27;;
77612;SDS011;66777;52.282;5.960;2023-02-15T05:00:37;29.80;;;13.02;;
77612;SDS011;66777;52.282;5.960;2023-02-15T05:03:02;28.88;;;10.52;;
77612;SDS011;66777;52.282;5.960;2023-02-15T05:05:28;25.95;;;10.25;;
77612;SDS011;66777;52.282;5.960;2023-02-15T05:07:53;28.35;;;11.32;;
77612;SDS011;66777;52.282;5.960;2023-02-15T05:10:19;27.13;;;10.77;;
77612;SDS011;66777;52.282;5.960;2023-02-15T05:12:45;25.23;;;10.02;;
77612;SDS011;66777;52.282;5.960;2023-02-15T05:15:12;27.73;;;11.65;;
77612;SDS011;66777;52.282;5.960;2023-02-15T05:17:37;26.60;;;11.00;;
77612;SDS011;66777;52.282;5.960;2023-02-15T05:20:03;25.48;;;9.98;;
77612;SDS011;66777;52.282;5.960;2023-02-15T05:22:29;27.52;;;10.20;;
77612;SDS011;66777;52.282;5.960;2023-02-15T05:24:55;29.85;;;10.73;;
77612;SDS011;66777;52.282;5.960;2023-02-15T05:27:39;29.70;;;10.80;;
77612;SDS011;66777;52.282;5.960;2023-02-15T05:30:23;27.25;;;10.90;;
77612;SDS011;66777;52.282;5.960;2023-02-15T05:32:49;25.90;;;9.45;;
77612;SDS011;66777;52.282;5.960;2023-02-15T05:35:15;30.20;;;11.65;;
77612;SDS011;66777;52.282;5.960;2023-02-15T05:37:41;28.65;;;10.40;;
77612;SDS011;66777;52.282;5.960;2023-02-15T05:40:07;28.23;;;11.48;;
77612;SDS011;66777;52.282;5.960;2023-02-15T05:42:33;24.63;;;9.55;;
77612;SDS011;66777;52.282;5.960;2023-02-15T05:44:59;25.70;;;9.15;;
77612;SDS011;66777;52.282;5.960;2023-02-15T05:47:25;26.63;;;10.32;;
77612;SDS011;66777;52.282;5.960;2023-02-15T05:49:50;22.77;;;10.15;;
77612;SDS011;66777;52.282;5.960;2023-02-15T05:52:16;23.65;;;9.55;;
77612;SDS011;66777;52.282;5.960;2023-02-15T05:54:42;29.65;;;10.10;;
77612;SDS011;66777;52.282;5.960;2023-02-15T05:57:07;30.35;;;9.40;;
77612;SDS011;66777;52.282;5.960;2023-02-15T05:59:39;23.92;;;8.75;;
77612;SDS011;66777;52.282;5.960;2023-02-15T06:02:05;27.30;;;11.10;;
77612;SDS011;66777;52.282;5.960;2023-02-15T06:04:31;28.08;;;9.05;;
77612;SDS011;66777;52.282;5.960;2023-02-15T06:06:57;24.33;;;9.48;;
77612;SDS011;66777;52.282;5.960;2023-02-15T06:09:23;25.75;;;10.43;;
77612;SDS011;66777;52.282;5.960;2023-02-15T06:11:48;22.75;;;8.35;;
77612;SDS011;66777;52.282;5.960;2023-02-15T06:14:14;27.17;;;9.93;;
77612;SDS011;66777;52.282;5.960;2023-02-15T06:16:40;24.80;;;10.40;;
77612;SDS011;66777;52.282;5.960;2023-02-15T06:19:05;27.17;;;10.23;;
77612;SDS011;66777;52.282;5.960;2023-02-15T06:21:31;26.95;;;11.00;;
77612;SDS011;66777;52.282;5.960;2023-02-15T06:23:57;28.38;;;11.10;;
77612;SDS011;66777;52.282;5.960;2023-02-15T06:26:23;29.05;;;9.35;;
77612;SDS011;66777;52.282;5.960;2023-02-15T06:28:48;26.58;;;9.07;;
77612;SDS011;66777;52.282;5.960;2023-02-15T06:31:14;26.27;;;11.15;;
77612;SDS011;66777;52.282;5.960;2023-02-15T06:33:40;25.08;;;10.48;;
77612;SDS011;66777;52.282;5.960;2023-02-15T06:36:05;26.08;;;9.32;;
77612;SDS011;66777;52.282;5.960;2023-02-15T06:38:31;26.08;;;9.02;;
77612;SDS011;66777;52.282;5.960;2023-02-15T06:40:57;18.42;;;7.45;;
77612;SDS011;66777;52.282;5.960;2023-02-15T06:43:23;28.75;;;10.05;;
77612;SDS011;66777;52.282;5.960;2023-02-15T06:45:49;28.23;;;10.60;;
77612;SDS011;66777;52.282;5.960;2023-02-15T06:48:15;23.58;;;8.80;;
77612;SDS011;66777;52.282;5.960;2023-02-15T06:50:40;24.27;;;9.77;;
77612;SDS011;66777;52.282;5.960;2023-02-15T06:53:06;25.48;;;10.10;;
77612;SDS011;66777;52.282;5.960;2023-02-15T06:55:32;22.50;;;10.18;;
77612;SDS011;66777;52.282;5.960;2023-02-15T06:57:57;25.10;;;9.13;;
77612;SDS011;66777;52.282;5.960;2023-02-15T07:00:23;24.55;;;9.57;;
77612;SDS011;66777;52.282;5.960;2023-02-15T07:02:54;24.35;;;9.05;;
77612;SDS011;66777;52.282;5.960;2023-02-15T07:05:22;28.15;;;10.55;;
77612;SDS011;66777;52.282;5.960;2023-02-15T07:07:48;24.30;;;10.27;;
77612;SDS011;66777;52.282;5.960;2023-02-15T07:10:14;24.27;;;10.70;;
77612;SDS011;66777;52.282;5.960;2023-02-15T07:12:41;24.35;;;9.75;;
77612;SDS011;66777;52.282;5.960;2023-02-15T07:15:10;22.70;;;9.43;;
77612;SDS011;66777;52.282;5.960;2023-02-15T07:17:38;26.52;;;9.40;;
77612;SDS011;66777;52.282;5.960;2023-02-15T07:20:08;22.60;;;10.00;;
77612;SDS011;66777;52.282;5.960;2023-02-15T07:22:41;23.02;;;9.10;;
77612;SDS011;66777;52.282;5.960;2023-02-15T07:25:08;29.08;;;10.63;;
77612;SDS011;66777;52.282;5.960;2023-02-15T07:27:35;27.17;;;11.20;;
77612;SDS011;66777;52.282;5.960;2023-02-15T07:30:01;23.23;;;9.23;;
77612;SDS011;66777;52.282;5.960;2023-02-15T07:32:30;25.63;;;9.60;;
77612;SDS011;66777;52.282;5.960;2023-02-15T07:34:56;26.05;;;10.27;;
77612;SDS011;66777;52.282;5.960;2023-02-15T07:37:22;26.42;;;9.30;;
77612;SDS011;66777;52.282;5.960;2023-02-15T07:39:48;24.00;;;9.63;;
77612;SDS011;66777;52.282;5.960;2023-02-15T07:42:14;29.83;;;10.45;;
77612;SDS011;66777;52.282;5.960;2023-02-15T07:44:39;24.55;;;10.00;;
77612;SDS011;66777;52.282;5.960;2023-02-15T07:47:05;30.85;;;10.80;;
77612;SDS011;66777;52.282;5.960;2023-02-15T07:49:31;31.48;;;11.50;;
77612;SDS011;66777;52.282;5.960;2023-02-15T07:51:56;26.52;;;10.98;;
77612;SDS011;66777;52.282;5.960;2023-02-15T07:54:22;23.05;;;10.32;;
77612;SDS011;66777;52.282;5.960;2023-02-15T07:56:47;29.65;;;10.98;;
77612;SDS011;66777;52.282;5.960;2023-02-15T07:59:13;25.58;;;10.45;;
77612;SDS011;66777;52.282;5.960;2023-02-15T08:01:39;29.23;;;12.80;;
77612;SDS011;66777;52.282;5.960;2023-02-15T08:04:05;25.83;;;9.82;;
77612;SDS011;66777;52.282;5.960;2023-02-15T08:06:32;28.83;;;12.52;;
77612;SDS011;66777;52.282;5.960;2023-02-15T08:08:59;26.35;;;12.38;;
77612;SDS011;66777;52.282;5.960;2023-02-15T08:11:27;28.33;;;12.05;;
77612;SDS011;66777;52.282;5.960;2023-02-15T08:14:05;30.63;;;12.45;;
77612;SDS011;66777;52.282;5.960;2023-02-15T08:16:34;31.80;;;10.98;;
77612;SDS011;66777;52.282;5.960;2023-02-15T08:21:45;37.60;;;12.30;;
77612;SDS011;66777;52.282;5.960;2023-02-15T08:24:14;31.55;;;13.65;;
77612;SDS011;66777;52.282;5.960;2023-02-15T08:26:40;31.88;;;13.07;;
77612;SDS011;66777;52.282;5.960;2023-02-15T08:29:07;30.30;;;12.05;;
77612;SDS011;66777;52.282;5.960;2023-02-15T08:31:33;31.73;;;12.85;;
77612;SDS011;66777;52.282;5.960;2023-02-15T08:34:00;32.65;;;13.13;;
77612;SDS011;66777;52.282;5.960;2023-02-15T08:36:27;36.15;;;13.90;;
77612;SDS011;66777;52.282;5.960;2023-02-15T08:38:54;30.77;;;14.18;;
77612;SDS011;66777;52.282;5.960;2023-02-15T08:41:24;34.55;;;13.50;;
77612;SDS011;66777;52.282;5.960;2023-02-15T08:43:52;39.08;;;13.45;;
77612;SDS011;66777;52.282;5.960;2023-02-15T08:46:19;36.28;;;13.30;;
77612;SDS011;66777;52.282;5.960;2023-02-15T08:48:46;35.78;;;13.93;;
77612;SDS011;66777;52.282;5.960;2023-02-15T08:53:43;32.90;;;13.73;;
77612;SDS011;66777;52.282;5.960;2023-02-15T08:56:11;35.30;;;14.25;;
77612;SDS011;66777;52.282;5.960;2023-02-15T08:58:37;38.50;;;14.63;;
77612;SDS011;66777;52.282;5.960;2023-02-15T09:01:13;44.72;;;16.60;;
77612;SDS011;66777;52.282;5.960;2023-02-15T09:03:43;42.17;;;16.17;;
77612;SDS011;66777;52.282;5.960;2023-02-15T09:06:09;37.72;;;15.23;;
77612;SDS011;66777;52.282;5.960;2023-02-15T09:08:36;34.38;;;13.52;;
77612;SDS011;66777;52.282;5.960;2023-02-15T09:11:14;33.50;;;14.27;;
77612;SDS011;66777;52.282;5.960;2023-02-15T09:13:55;39.65;;;14.95;;
77612;SDS011;66777;52.282;5.960;2023-02-15T09:16:23;34.05;;;14.43;;
77612;SDS011;66777;52.282;5.960;2023-02-15T09:18:51;32.72;;;14.57;;
77612;SDS011;66777;52.282;5.960;2023-02-15T09:21:18;41.08;;;16.30;;
77612;SDS011;66777;52.282;5.960;2023-02-15T09:23:46;38.42;;;16.13;;
77612;SDS011;66777;52.282;5.960;2023-02-15T09:26:15;41.40;;;15.70;;
77612;SDS011;66777;52.282;5.960;2023-02-15T09:28:43;38.58;;;15.27;;
77612;SDS011;66777;52.282;5.960;2023-02-15T09:31:10;38.15;;;14.63;;
77612;SDS011;66777;52.282;5.960;2023-02-15T09:33:41;40.05;;;16.08;;
77612;SDS011;66777;52.282;5.960;2023-02-15T09:38:52;40.90;;;15.98;;
77612;SDS011;66777;52.282;5.960;2023-02-15T09:55:52;39.30;;;15.50;;
77612;SDS011;66777;52.282;5.960;2023-02-15T09:58:43;41.72;;;18.08;;
77612;SDS011;66777;52.282;5.960;2023-02-15T10:09:38;39.33;;;16.52;;
77612;SDS011;66777;52.282;5.960;2023-02-15T10:11:56;41.35;;;16.40;;
77612;SDS011;66777;52.282;5.960;2023-02-15T10:28:06;40.72;;;16.13;;
77612;SDS011;66777;52.282;5.960;2023-02-15T10:38:51;35.15;;;14.85;;
77612;SDS011;66777;52.282;5.960;2023-02-15T10:47:36;38.03;;;16.10;;
77612;SDS011;66777;52.282;5.960;2023-02-15T10:50:13;37.28;;;15.70;;
77612;SDS011;66777;52.282;5.960;2023-02-15T10:52:48;41.22;;;15.73;;
77612;SDS011;66777;52.282;5.960;2023-02-15T10:55:35;32.72;;;14.57;;
77612;SDS011;66777;52.282;5.960;2023-02-15T10:58:13;40.17;;;15.60;;
77612;SDS011;66777;52.282;5.960;2023-02-15T11:00:53;39.58;;;15.88;;
77612;SDS011;66777;52.282;5.960;2023-02-15T11:06:49;32.42;;;15.15;;
77612;SDS011;66777;52.282;5.960;2023-02-15T11:09:18;36.58;;;16.35;;
77612;SDS011;66777;52.282;5.960;2023-02-15T11:11:51;38.97;;;16.67;;
77612;SDS011;66777;52.282;5.960;2023-02-15T11:17:25;37.50;;;15.98;;
77612;SDS011;66777;52.282;5.960;2023-02-15T11:22:21;33.00;;;15.15;;
77612;SDS011;66777;52.282;5.960;2023-02-15T11:24:47;34.40;;;16.55;;
77612;SDS011;66777;52.282;5.960;2023-02-15T11:27:20;33.75;;;16.02;;
77612;SDS011;66777;52.282;5.960;2023-02-15T11:29:52;35.63;;;16.95;;
77612;SDS011;66777;52.282;5.960;2023-02-15T11:32:28;33.53;;;16.20;;
77612;SDS011;66777;52.282;5.960;2023-02-15T11:34:59;28.52;;;14.65;;
77612;SDS011;66777;52.282;5.960;2023-02-15T11:40:32;29.70;;;15.40;;
77612;SDS011;66777;52.282;5.960;2023-02-15T11:43:10;26.73;;;16.75;;
77612;SDS011;66777;52.282;5.960;2023-02-15T11:45:42;28.77;;;17.55;;
77612;SDS011;66777;52.282;5.960;2023-02-15T11:48:10;30.23;;;17.33;;
77612;SDS011;66777;52.282;5.960;2023-02-15T11:50:37;31.10;;;18.75;;
77612;SDS011;66777;52.282;5.960;2023-02-15T11:53:04;31.90;;;19.67;;
77612;SDS011;66777;52.282;5.960;2023-02-15T11:55:36;30.05;;;19.38;;
77612;SDS011;66777;52.282;5.960;2023-02-15T12:01:02;27.38;;;16.85;;
77612;SDS011;66777;52.282;5.960;2023-02-15T12:03:50;29.38;;;17.05;;
77612;SDS011;66777;52.282;5.960;2023-02-15T12:08:56;29.33;;;20.15;;
77612;SDS011;66777;52.282;5.960;2023-02-15T12:11:31;27.80;;;18.02;;
77612;SDS011;66777;52.282;5.960;2023-02-15T12:14:10;28.80;;;20.10;;
77612;SDS011;66777;52.282;5.960;2023-02-15T12:16:41;29.33;;;19.30;;
77612;SDS011;66777;52.282;5.960;2023-02-15T12:19:13;32.42;;;19.98;;
77612;SDS011;66777;52.282;5.960;2023-02-15T12:22:03;28.05;;;18.13;;
77612;SDS011;66777;52.282;5.960;2023-02-15T12:24:31;26.42;;;18.27;;
77612;SDS011;66777;52.282;5.960;2023-02-15T12:27:17;26.10;;;17.88;;
77612;SDS011;66777;52.282;5.960;2023-02-15T12:30:00;29.10;;;18.23;;
77612;SDS011;66777;52.282;5.960;2023-02-15T12:32:36;33.88;;;19.17;;
77612;SDS011;66777;52.282;5.960;2023-02-15T12:35:32;30.00;;;17.58;;
77612;SDS011;66777;52.282;5.960;2023-02-15T12:38:05;30.80;;;17.02;;
77612;SDS011;66777;52.282;5.960;2023-02-15T12:40:31;30.40;;;16.13;;
77612;SDS011;66777;52.282;5.960;2023-02-15T12:42:58;30.98;;;16.38;;
77612;SDS011;66777;52.282;5.960;2023-02-15T12:45:28;32.13;;;17.67;;
77612;SDS011;66777;52.282;5.960;2023-02-15T12:48:16;27.23;;;16.58;;
77612;SDS011;66777;52.282;5.960;2023-02-15T12:50:47;30.52;;;16.55;;
77612;SDS011;66777;52.282;5.960;2023-02-15T12:53:21;29.25;;;16.75;;
77612;SDS011;66777;52.282;5.960;2023-02-15T12:55:56;32.80;;;17.52;;
77612;SDS011;66777;52.282;5.960;2023-02-15T12:58:26;29.02;;;16.75;;
77612;SDS011;66777;52.282;5.960;2023-02-15T13:03:26;31.83;;;16.70;;
77612;SDS011;66777;52.282;5.960;2023-02-15T13:05:53;29.20;;;16.77;;
77612;SDS011;66777;52.282;5.960;2023-02-15T13:08:22;37.08;;;25.08;;
77612;SDS011;66777;52.282;5.960;2023-02-15T13:13:19;28.58;;;17.55;;
77612;SDS011;66777;52.282;5.960;2023-02-15T13:15:52;32.83;;;19.58;;
77612;SDS011;66777;52.282;5.960;2023-02-15T13:18:29;32.05;;;19.60;;
77612;SDS011;66777;52.282;5.960;2023-02-15T13:20:55;32.53;;;19.98;;
77612;SDS011;66777;52.282;5.960;2023-02-15T13:23:29;29.67;;;19.98;;
77612;SDS011;66777;52.282;5.960;2023-02-15T13:25:57;35.08;;;18.75;;
77612;SDS011;66777;52.282;5.960;2023-02-15T13:28:31;30.13;;;18.27;;
77612;SDS011;66777;52.282;5.960;2023-02-15T13:31:15;30.63;;;18.38;;
77612;SDS011;66777;52.282;5.960;2023-02-15T13:33:49;28.33;;;16.17;;
77612;SDS011;66777;52.282;5.960;2023-02-15T13:36:25;30.10;;;17.08;;
77612;SDS011;66777;52.282;5.960;2023-02-15T14:12:37;28.13;;;13.98;;
77612;SDS011;66777;52.282;5.960;2023-02-15T14:15:32;27.85;;;13.48;;
77612;SDS011;66777;52.282;5.960;2023-02-15T14:21:04;26.45;;;13.15;;
77612;SDS011;66777;52.282;5.960;2023-02-15T14:29:49;28.02;;;13.23;;
77612;SDS011;66777;52.282;5.960;2023-02-15T14:32:26;30.02;;;13.48;;
77612;SDS011;66777;52.282;5.960;2023-02-15T14:35:05;33.50;;;14.85;;
77612;SDS011;66777;52.282;5.960;2023-02-15T14:37:44;31.13;;;14.40;;
77612;SDS011;66777;52.282;5.960;2023-02-15T14:43:44;32.80;;;14.73;;
77612;SDS011;66777;52.282;5.960;2023-02-15T14:56:44;30.15;;;13.77;;
77612;SDS011;66777;52.282;5.960;2023-02-15T14:59:13;33.08;;;13.98;;
77612;SDS011;66777;52.282;5.960;2023-02-15T15:01:41;28.27;;;13.95;;
77612;SDS011;66777;52.282;5.960;2023-02-15T15:04:22;32.53;;;14.85;;
77612;SDS011;66777;52.282;5.960;2023-02-15T15:07:20;32.67;;;14.73;;
77612;SDS011;66777;52.282;5.960;2023-02-15T15:09:58;31.73;;;14.27;;
77612;SDS011;66777;52.282;5.960;2023-02-15T15:15:00;32.33;;;14.00;;
77612;SDS011;66777;52.282;5.960;2023-02-15T15:20:12;34.03;;;13.95;;
77612;SDS011;66777;52.282;5.960;2023-02-15T15:22:50;33.83;;;14.60;;
77612;SDS011;66777;52.282;5.960;2023-02-15T15:25:43;31.27;;;13.20;;
77612;SDS011;66777;52.282;5.960;2023-02-15T15:33:50;30.40;;;16.60;;
77612;SDS011;66777;52.282;5.960;2023-02-15T15:45:03;36.67;;;15.05;;
77612;SDS011;66777;52.282;5.960;2023-02-15T15:50:29;33.72;;;15.07;;
77612;SDS011;66777;52.282;5.960;2023-02-15T15:52:57;35.63;;;15.52;;
77612;SDS011;66777;52.282;5.960;2023-02-15T15:55:26;33.95;;;15.10;;
77612;SDS011;66777;52.282;5.960;2023-02-15T15:57:56;32.90;;;15.40;;
77612;SDS011;66777;52.282;5.960;2023-02-15T16:00:30;32.50;;;14.65;;
77612;SDS011;66777;52.282;5.960;2023-02-15T16:03:21;35.78;;;15.68;;
77612;SDS011;66777;52.282;5.960;2023-02-15T16:05:51;36.75;;;14.95;;
77612;SDS011;66777;52.282;5.960;2023-02-15T16:08:28;39.80;;;15.85;;
77612;SDS011;66777;52.282;5.960;2023-02-15T16:10:55;36.08;;;14.52;;
77612;SDS011;66777;52.282;5.960;2023-02-15T16:13:23;38.45;;;15.60;;
77612;SDS011;66777;52.282;5.960;2023-02-15T16:15:52;32.38;;;15.50;;
77612;SDS011;66777;52.282;5.960;2023-02-15T16:18:21;34.80;;;15.63;;
77612;SDS011;66777;52.282;5.960;2023-02-15T16:28:31;35.38;;;14.35;;
77612;SDS011;66777;52.282;5.960;2023-02-15T16:31:10;38.97;;;15.68;;
77612;SDS011;66777;52.282;5.960;2023-02-15T16:33:41;37.15;;;16.73;;
77612;SDS011;66777;52.282;5.960;2023-02-15T16:36:11;38.28;;;16.55;;
77612;SDS011;66777;52.282;5.960;2023-02-15T16:41:17;37.08;;;15.93;;
77612;SDS011;66777;52.282;5.960;2023-02-15T16:43:49;43.72;;;16.67;;
77612;SDS011;66777;52.282;5.960;2023-02-15T16:46:23;39.55;;;16.75;;
77612;SDS011;66777;52.282;5.960;2023-02-15T16:48:52;38.65;;;15.30;;
77612;SDS011;66777;52.282;5.960;2023-02-15T16:51:25;36.65;;;15.52;;
77612;SDS011;66777;52.282;5.960;2023-02-15T16:53:56;37.00;;;15.68;;
77612;SDS011;66777;52.282;5.960;2023-02-15T16:56:29;36.88;;;15.93;;
77612;SDS011;66777;52.282;5.960;2023-02-15T16:58:56;35.90;;;15.82;;
77612;SDS011;66777;52.282;5.960;2023-02-15T17:01:24;37.58;;;15.18;;
77612;SDS011;66777;52.282;5.960;2023-02-15T17:04:25;38.70;;;14.68;;
77612;SDS011;66777;52.282;5.960;2023-02-15T17:07:00;35.25;;;15.23;;
77612;SDS011;66777;52.282;5.960;2023-02-15T17:09:29;39.08;;;14.80;;
77612;SDS011;66777;52.282;5.960;2023-02-15T17:11:55;38.03;;;15.68;;
77612;SDS011;66777;52.282;5.960;2023-02-15T17:14:32;39.80;;;16.15;;
77612;SDS011;66777;52.282;5.960;2023-02-15T17:17:07;37.42;;;15.65;;
77612;SDS011;66777;52.282;5.960;2023-02-15T17:19:49;43.75;;;16.83;;
77612;SDS011;66777;52.282;5.960;2023-02-15T17:22:25;38.45;;;15.52;;
77612;SDS011;66777;52.282;5.960;2023-02-15T17:24:58;35.30;;;13.85;;
77612;SDS011;66777;52.282;5.960;2023-02-15T17:27:27;36.65;;;15.43;;
77612;SDS011;66777;52.282;5.960;2023-02-15T17:30:04;41.70;;;16.17;;
77612;SDS011;66777;52.282;5.960;2023-02-15T17:32:52;38.25;;;15.50;;
77612;SDS011;66777;52.282;5.960;2023-02-15T17:35:20;37.47;;;15.65;;
77612;SDS011;66777;52.282;5.960;2023-02-15T17:37:59;37.22;;;14.98;;
77612;SDS011;66777;52.282;5.960;2023-02-15T17:40:31;42.83;;;17.23;;
77612;SDS011;66777;52.282;5.960;2023-02-15T17:43:01;46.67;;;16.85;;
77612;SDS011;66777;52.282;5.960;2023-02-15T17:45:33;49.72;;;19.27;;
77612;SDS011;66777;52.282;5.960;2023-02-15T17:48:16;59.08;;;20.88;;
77612;SDS011;66777;52.282;5.960;2023-02-15T17:51:01;62.05;;;21.70;;
77612;SDS011;66777;52.282;5.960;2023-02-15T17:53:28;63.03;;;22.83;;
77612;SDS011;66777;52.282;5.960;2023-02-15T17:55:54;52.25;;;18.88;;
77612;SDS011;66777;52.282;5.960;2023-02-15T17:58:20;51.13;;;19.23;;
77612;SDS011;66777;52.282;5.960;2023-02-15T18:03:38;45.35;;;17.23;;
77612;SDS011;66777;52.282;5.960;2023-02-15T18:06:28;49.45;;;17.23;;
77612;SDS011;66777;52.282;5.960;2023-02-15T18:09:13;56.83;;;20.92;;